RYR15FX LICA-LIMJ
Flight info
| Callsign | RYR15FX |
|---|---|
| Flight time | 1h 17m |
| Altitude | 38000 |
| Route | ARBUM DCT EVINO DCT POLIT DCT SOR DCT TIBER DCT RITEB DCT IBRID DCT RUXOL DCT BEROK M730 KALMO |
| Aircraft | B738/M-SDE2E3FGHIRWXY/LB1 |
Departure
| Time | 2026-05-07 00:51 |
|---|---|
| Airport | Lamezia Terme Sant'Eufemia International Airport (LICA) |
Arrival
| Time | 2026-05-07 02:09 |
|---|---|
| Airport | Genoa Cristoforo Colombo Airport (LIMJ) |
| Time | Latitude | Longitude | Altitude | Speed | Heading |
|---|---|---|---|---|---|
| 2026-05-07 00:40 | 38.90860 | 16.24520 | 48 ft | 0 kts | 46° |
| 2026-05-07 00:46 | 38.90863 | 16.24525 | 48 ft | 3 kts | 60° |
| 2026-05-07 00:46 | 38.90859 | 16.24548 | 48 ft | 2 kts | 133° |
| 2026-05-07 00:46 | 38.90850 | 16.24548 | 48 ft | 1 kts | 202° |
| 2026-05-07 00:47 | 38.90813 | 16.24531 | 48 ft | 10 kts | 180° |
| 2026-05-07 00:47 | 38.90755 | 16.24582 | 48 ft | 10 kts | 167° |
| 2026-05-07 00:47 | 38.90729 | 16.24546 | 48 ft | 6 kts | 264° |
| 2026-05-07 00:47 | 38.90733 | 16.24488 | 48 ft | 8 kts | 278° |
| 2026-05-07 00:48 | 38.90742 | 16.24411 | 48 ft | 10 kts | 278° |
| 2026-05-07 00:48 | 38.90753 | 16.24313 | 48 ft | 12 kts | 278° |
| 2026-05-07 00:48 | 38.90767 | 16.24194 | 48 ft | 15 kts | 278° |
| 2026-05-07 00:48 | 38.90783 | 16.24054 | 48 ft | 17 kts | 278° |
| 2026-05-07 00:49 | 38.90802 | 16.23894 | 48 ft | 19 kts | 278° |
| 2026-05-07 00:49 | 38.90822 | 16.23716 | 48 ft | 21 kts | 278° |
| 2026-05-07 00:49 | 38.90833 | 16.23537 | 48 ft | 17 kts | 244° |
| 2026-05-07 00:49 | 38.90740 | 16.23493 | 48 ft | 11 kts | 149° |
| 2026-05-07 00:50 | 38.90687 | 16.23562 | 48 ft | 10 kts | 134° |
| 2026-05-07 00:50 | 38.90663 | 16.23592 | 48 ft | 0 kts | 144° |
| 2026-05-07 00:50 | 38.90652 | 16.23602 | 48 ft | 5 kts | 144° |
| 2026-05-07 00:50 | 38.90608 | 16.23666 | 48 ft | 17 kts | 109° |
| 2026-05-07 00:51 | 38.90573 | 16.23942 | 48 ft | 58 kts | 98° |
| 2026-05-07 00:51 | 38.90481 | 16.24734 | 48 ft | 121 kts | 98° |
| 2026-05-07 00:51 | 38.90337 | 16.25969 | 356 ft | 145 kts | 98° |
| 2026-05-07 00:51 | 38.90183 | 16.27274 | 1056 ft | 150 kts | 97° |
| 2026-05-07 00:52 | 38.90024 | 16.28623 | 1745 ft | 155 kts | 97° |
| 2026-05-07 00:52 | 38.89853 | 16.30048 | 2326 ft | 168 kts | 97° |
| 2026-05-07 00:52 | 38.90111 | 16.31512 | 2917 ft | 176 kts | 62° |
| 2026-05-07 00:52 | 38.91043 | 16.32522 | 3577 ft | 182 kts | 26° |
| 2026-05-07 00:53 | 38.92304 | 16.32638 | 4231 ft | 185 kts | 348° |
| 2026-05-07 00:53 | 38.93399 | 16.31827 | 4889 ft | 186 kts | 318° |
| 2026-05-07 00:53 | 38.94326 | 16.30596 | 5519 ft | 197 kts | 310° |
| 2026-05-07 00:53 | 38.95244 | 16.29228 | 6137 ft | 210 kts | 309° |
| 2026-05-07 00:54 | 38.96196 | 16.27779 | 6718 ft | 231 kts | 308° |
| 2026-05-07 00:54 | 38.97288 | 16.26114 | 7344 ft | 254 kts | 308° |
| 2026-05-07 00:54 | 38.98472 | 16.24313 | 7972 ft | 277 kts | 308° |
| 2026-05-07 00:54 | 38.99782 | 16.22346 | 8593 ft | 301 kts | 310° |
| 2026-05-07 00:55 | 39.01348 | 16.20399 | 9220 ft | 325 kts | 316° |
| 2026-05-07 00:55 | 39.03131 | 16.18452 | 9844 ft | 346 kts | 318° |
| 2026-05-07 00:55 | 39.05040 | 16.16466 | 10454 ft | 366 kts | 318° |
| 2026-05-07 00:55 | 39.07087 | 16.14379 | 11064 ft | 383 kts | 318° |
| 2026-05-07 00:56 | 39.09229 | 16.12217 | 11672 ft | 398 kts | 317° |
| 2026-05-07 00:56 | 39.11452 | 16.09982 | 12280 ft | 410 kts | 317° |
| 2026-05-07 00:56 | 39.13713 | 16.07715 | 12902 ft | 419 kts | 317° |
| 2026-05-07 00:56 | 39.15251 | 16.06175 | 13386 ft | 422 kts | 317° |
| 2026-05-07 00:57 | 39.18350 | 16.03074 | 14355 ft | 431 kts | 317° |
| 2026-05-07 00:57 | 39.20796 | 16.00609 | 14940 ft | 457 kts | 317° |
| 2026-05-07 00:57 | 39.22465 | 15.98915 | 15501 ft | 467 kts | 317° |
| 2026-05-07 00:57 | 39.25068 | 15.96276 | 16428 ft | 478 kts | 317° |
| 2026-05-07 00:58 | 39.27699 | 15.93636 | 17350 ft | 485 kts | 318° |
| 2026-05-07 00:58 | 39.30391 | 15.90970 | 18280 ft | 489 kts | 319° |
| 2026-05-07 00:58 | 39.33126 | 15.88300 | 19218 ft | 490 kts | 319° |
| 2026-05-07 00:58 | 39.35845 | 15.85664 | 20146 ft | 490 kts | 319° |
| 2026-05-07 00:59 | 39.41297 | 15.80396 | 22005 ft | 489 kts | 319° |
| 2026-05-07 00:59 | 39.44027 | 15.77757 | 22936 ft | 488 kts | 319° |
| 2026-05-07 00:59 | 39.46715 | 15.75154 | 23853 ft | 487 kts | 320° |
| 2026-05-07 01:00 | 39.49449 | 15.72501 | 24788 ft | 487 kts | 319° |
| 2026-05-07 01:00 | 39.52152 | 15.69875 | 25714 ft | 486 kts | 319° |
| 2026-05-07 01:00 | 39.54867 | 15.67240 | 26644 ft | 485 kts | 319° |
| 2026-05-07 01:00 | 39.57540 | 15.64651 | 27428 ft | 487 kts | 319° |
| 2026-05-07 01:01 | 39.60274 | 15.61995 | 27977 ft | 492 kts | 319° |
| 2026-05-07 01:01 | 39.63022 | 15.59316 | 28487 ft | 495 kts | 319° |
| 2026-05-07 01:01 | 39.65749 | 15.56631 | 28986 ft | 495 kts | 319° |
| 2026-05-07 01:01 | 39.68501 | 15.53906 | 29489 ft | 495 kts | 319° |
| 2026-05-07 01:02 | 39.71215 | 15.51212 | 29986 ft | 493 kts | 318° |
| 2026-05-07 01:02 | 39.73944 | 15.48503 | 30487 ft | 492 kts | 318° |
| 2026-05-07 01:02 | 39.76668 | 15.45805 | 30989 ft | 490 kts | 318° |
| 2026-05-07 01:02 | 39.79393 | 15.43115 | 31491 ft | 488 kts | 318° |
| 2026-05-07 01:03 | 39.82076 | 15.40478 | 31988 ft | 486 kts | 318° |
| 2026-05-07 01:03 | 39.84779 | 15.37821 | 32490 ft | 484 kts | 318° |
| 2026-05-07 01:03 | 39.87430 | 15.35193 | 32986 ft | 481 kts | 317° |
| 2026-05-07 01:03 | 39.90089 | 15.32554 | 33487 ft | 478 kts | 317° |
| 2026-05-07 01:04 | 39.92735 | 15.29933 | 33987 ft | 476 kts | 317° |
| 2026-05-07 01:04 | 39.95347 | 15.27355 | 34483 ft | 473 kts | 317° |
| 2026-05-07 01:04 | 39.97979 | 15.24753 | 34987 ft | 469 kts | 317° |
| 2026-05-07 01:04 | 40.00541 | 15.22195 | 35483 ft | 466 kts | 316° |
| 2026-05-07 01:05 | 40.03115 | 15.19618 | 35982 ft | 463 kts | 317° |
| 2026-05-07 01:05 | 40.05650 | 15.17097 | 36476 ft | 461 kts | 317° |
| 2026-05-07 01:05 | 40.08202 | 15.14553 | 36979 ft | 458 kts | 317° |
| 2026-05-07 01:05 | 40.10724 | 15.12012 | 37480 ft | 455 kts | 316° |
| 2026-05-07 01:06 | 40.13199 | 15.09503 | 37895 ft | 455 kts | 316° |
| 2026-05-07 01:06 | 40.15712 | 15.06939 | 38020 ft | 459 kts | 316° |
| 2026-05-07 01:06 | 40.18254 | 15.04334 | 38063 ft | 463 kts | 316° |
| 2026-05-07 01:07 | 40.23307 | 14.99144 | 38056 ft | 459 kts | 316° |
| 2026-05-07 01:07 | 40.28300 | 14.94020 | 38053 ft | 453 kts | 316° |
| 2026-05-07 01:08 | 40.33233 | 14.88965 | 38050 ft | 449 kts | 316° |
| 2026-05-07 01:08 | 40.38128 | 14.83950 | 38049 ft | 447 kts | 316° |
| 2026-05-07 01:09 | 40.43035 | 14.78915 | 38049 ft | 446 kts | 316° |
| 2026-05-07 01:09 | 40.47902 | 14.73907 | 38049 ft | 445 kts | 316° |
| 2026-05-07 01:10 | 40.52768 | 14.68894 | 38048 ft | 445 kts | 316° |
| 2026-05-07 01:10 | 40.57634 | 14.63875 | 38047 ft | 445 kts | 316° |
| 2026-05-07 01:11 | 40.62530 | 14.58821 | 38044 ft | 445 kts | 316° |
| 2026-05-07 01:11 | 40.67394 | 14.53797 | 38040 ft | 445 kts | 316° |
| 2026-05-07 01:12 | 40.72266 | 14.48762 | 38035 ft | 445 kts | 316° |
| 2026-05-07 01:12 | 40.77135 | 14.43726 | 38031 ft | 445 kts | 316° |
| 2026-05-07 01:13 | 40.82002 | 14.38689 | 38026 ft | 446 kts | 316° |
| 2026-05-07 01:13 | 40.86862 | 14.33655 | 38024 ft | 446 kts | 316° |
| 2026-05-07 01:14 | 40.91763 | 14.28577 | 38023 ft | 446 kts | 316° |
| 2026-05-07 01:14 | 40.96651 | 14.23510 | 38022 ft | 446 kts | 316° |
| 2026-05-07 01:15 | 41.01514 | 14.18457 | 38023 ft | 447 kts | 316° |
| 2026-05-07 01:15 | 41.06417 | 14.13330 | 38022 ft | 447 kts | 316° |
| 2026-05-07 01:16 | 41.11240 | 14.08189 | 38022 ft | 447 kts | 315° |
| 2026-05-07 01:16 | 41.16085 | 14.02982 | 38022 ft | 447 kts | 315° |
| 2026-05-07 01:17 | 41.20892 | 13.97816 | 38021 ft | 447 kts | 315° |
| 2026-05-07 01:17 | 41.25739 | 13.92589 | 38019 ft | 448 kts | 315° |
| 2026-05-07 01:18 | 41.30583 | 13.87343 | 38018 ft | 448 kts | 315° |
| 2026-05-07 01:18 | 41.35406 | 13.82111 | 38016 ft | 449 kts | 315° |
| 2026-05-07 01:19 | 41.40230 | 13.76871 | 38015 ft | 449 kts | 315° |
| 2026-05-07 01:19 | 41.45084 | 13.71595 | 38015 ft | 449 kts | 315° |
| 2026-05-07 01:20 | 41.49913 | 13.66339 | 38015 ft | 450 kts | 315° |
| 2026-05-07 01:20 | 41.54750 | 13.61071 | 38017 ft | 450 kts | 315° |
| 2026-05-07 01:21 | 41.59620 | 13.55761 | 38019 ft | 450 kts | 315° |
| 2026-05-07 01:21 | 41.64444 | 13.50496 | 38020 ft | 450 kts | 315° |
| 2026-05-07 01:22 | 41.69305 | 13.45184 | 38020 ft | 450 kts | 315° |
| 2026-05-07 01:22 | 41.74142 | 13.39894 | 38020 ft | 450 kts | 315° |
| 2026-05-07 01:23 | 41.79000 | 13.34574 | 38020 ft | 450 kts | 315° |
| 2026-05-07 01:23 | 41.83828 | 13.29282 | 38016 ft | 450 kts | 315° |
| 2026-05-07 01:24 | 41.88680 | 13.23958 | 38014 ft | 450 kts | 315° |
| 2026-05-07 01:24 | 41.93514 | 13.18649 | 38012 ft | 450 kts | 315° |
| 2026-05-07 01:25 | 41.98340 | 13.13343 | 38012 ft | 450 kts | 315° |
| 2026-05-07 01:25 | 42.03206 | 13.07997 | 38011 ft | 450 kts | 315° |
| 2026-05-07 01:26 | 42.08054 | 13.02695 | 38011 ft | 451 kts | 315° |
| 2026-05-07 01:26 | 42.12917 | 12.97373 | 38008 ft | 452 kts | 315° |
| 2026-05-07 01:27 | 42.17805 | 12.92001 | 37995 ft | 452 kts | 315° |
| 2026-05-07 01:27 | 42.22674 | 12.86648 | 37993 ft | 452 kts | 315° |
| 2026-05-07 01:28 | 42.27501 | 12.81245 | 37993 ft | 452 kts | 314° |
| 2026-05-07 01:28 | 42.32323 | 12.75768 | 37992 ft | 452 kts | 314° |
| 2026-05-07 01:29 | 42.37134 | 12.70276 | 37994 ft | 451 kts | 314° |
| 2026-05-07 01:29 | 42.41914 | 12.64808 | 37993 ft | 451 kts | 314° |
| 2026-05-07 01:30 | 42.46690 | 12.59337 | 37993 ft | 451 kts | 314° |
| 2026-05-07 01:30 | 42.51496 | 12.53829 | 37995 ft | 451 kts | 314° |
| 2026-05-07 01:31 | 42.56290 | 12.48343 | 37993 ft | 451 kts | 314° |
| 2026-05-07 01:31 | 42.61078 | 12.42865 | 37990 ft | 452 kts | 314° |
| 2026-05-07 01:32 | 42.65870 | 12.37376 | 37990 ft | 452 kts | 314° |
| 2026-05-07 01:32 | 42.70691 | 12.31851 | 37990 ft | 452 kts | 314° |
| 2026-05-07 01:33 | 42.75489 | 12.26361 | 37989 ft | 452 kts | 314° |
| 2026-05-07 01:33 | 42.80319 | 12.20837 | 37990 ft | 452 kts | 314° |
| 2026-05-07 01:34 | 42.85131 | 12.15342 | 37990 ft | 453 kts | 314° |
| 2026-05-07 01:34 | 42.89939 | 12.09804 | 37989 ft | 452 kts | 313° |
| 2026-05-07 01:35 | 42.94701 | 12.04232 | 37989 ft | 453 kts | 313° |
| 2026-05-07 01:35 | 42.99465 | 11.98640 | 37988 ft | 453 kts | 313° |
| 2026-05-07 01:36 | 43.04232 | 11.93060 | 37987 ft | 453 kts | 313° |
| 2026-05-07 01:36 | 43.09044 | 11.87444 | 37983 ft | 453 kts | 313° |
| 2026-05-07 01:37 | 43.13853 | 11.81846 | 37980 ft | 453 kts | 313° |
| 2026-05-07 01:37 | 43.18650 | 11.76274 | 37979 ft | 454 kts | 313° |
| 2026-05-07 01:38 | 43.23435 | 11.70639 | 37978 ft | 453 kts | 312° |
| 2026-05-07 01:38 | 43.28205 | 11.64955 | 37978 ft | 454 kts | 312° |
| 2026-05-07 01:39 | 43.32938 | 11.59303 | 37978 ft | 454 kts | 312° |
| 2026-05-07 01:39 | 43.37710 | 11.53603 | 37978 ft | 454 kts | 312° |
| 2026-05-07 01:40 | 43.42510 | 11.47905 | 37980 ft | 454 kts | 312° |
| 2026-05-07 01:40 | 43.47221 | 11.42149 | 37981 ft | 453 kts | 310° |
| 2026-05-07 01:41 | 43.51845 | 11.36301 | 37486 ft | 455 kts | 310° |
| 2026-05-07 01:41 | 43.54172 | 11.33328 | 36994 ft | 453 kts | 310° |
| 2026-05-07 01:41 | 43.56448 | 11.30422 | 36501 ft | 448 kts | 310° |
| 2026-05-07 01:41 | 43.58740 | 11.27503 | 35997 ft | 443 kts | 310° |
| 2026-05-07 01:42 | 43.60977 | 11.24663 | 35499 ft | 437 kts | 310° |
| 2026-05-07 01:42 | 43.63222 | 11.21825 | 34994 ft | 431 kts | 310° |
| 2026-05-07 01:42 | 43.65405 | 11.19052 | 34497 ft | 426 kts | 309° |
| 2026-05-07 01:42 | 43.67554 | 11.16299 | 33998 ft | 421 kts | 309° |
| 2026-05-07 01:43 | 43.69699 | 11.13547 | 33494 ft | 416 kts | 309° |
| 2026-05-07 01:43 | 43.71795 | 11.10855 | 32996 ft | 412 kts | 309° |
| 2026-05-07 01:43 | 43.73895 | 11.08155 | 32492 ft | 408 kts | 309° |
| 2026-05-07 01:43 | 43.75953 | 11.05505 | 31994 ft | 405 kts | 309° |
| 2026-05-07 01:44 | 43.77998 | 11.02874 | 31495 ft | 401 kts | 309° |
| 2026-05-07 01:44 | 43.80046 | 11.00237 | 30991 ft | 398 kts | 309° |
| 2026-05-07 01:44 | 43.82052 | 10.97653 | 30493 ft | 395 kts | 309° |
| 2026-05-07 01:44 | 43.84071 | 10.95052 | 29988 ft | 392 kts | 309° |
| 2026-05-07 01:45 | 43.86048 | 10.92501 | 29491 ft | 389 kts | 309° |
| 2026-05-07 01:45 | 43.88014 | 10.89962 | 28992 ft | 387 kts | 309° |
| 2026-05-07 01:45 | 43.89997 | 10.87401 | 28485 ft | 384 kts | 309° |
| 2026-05-07 01:45 | 43.91930 | 10.84901 | 27987 ft | 382 kts | 309° |
| 2026-05-07 01:46 | 43.93852 | 10.82407 | 27489 ft | 379 kts | 309° |
| 2026-05-07 01:46 | 43.95784 | 10.79893 | 26985 ft | 377 kts | 309° |
| 2026-05-07 01:46 | 43.97682 | 10.77416 | 26486 ft | 374 kts | 309° |
| 2026-05-07 01:46 | 43.99580 | 10.74933 | 25983 ft | 372 kts | 309° |
| 2026-05-07 01:47 | 44.01448 | 10.72484 | 25484 ft | 370 kts | 308° |
| 2026-05-07 01:47 | 44.03321 | 10.70037 | 24982 ft | 368 kts | 309° |
| 2026-05-07 01:47 | 44.05166 | 10.67627 | 24486 ft | 366 kts | 309° |
| 2026-05-07 01:47 | 44.07023 | 10.65195 | 23982 ft | 364 kts | 309° |
| 2026-05-07 01:48 | 44.08737 | 10.62707 | 23515 ft | 353 kts | 300° |
| 2026-05-07 01:48 | 44.10037 | 10.59850 | 23092 ft | 342 kts | 290° |
| 2026-05-07 01:48 | 44.11039 | 10.56919 | 22694 ft | 336 kts | 286° |
| 2026-05-07 01:48 | 44.11908 | 10.53906 | 22303 ft | 332 kts | 283° |
| 2026-05-07 01:49 | 44.12694 | 10.50924 | 21904 ft | 329 kts | 283° |
| 2026-05-07 01:49 | 44.13447 | 10.47937 | 21484 ft | 327 kts | 282° |
| 2026-05-07 01:49 | 44.14188 | 10.44932 | 21056 ft | 325 kts | 282° |
| 2026-05-07 01:49 | 44.14903 | 10.41983 | 20633 ft | 322 kts | 282° |
| 2026-05-07 01:50 | 44.15585 | 10.39011 | 20206 ft | 319 kts | 281° |
| 2026-05-07 01:50 | 44.16222 | 10.36077 | 19783 ft | 317 kts | 280° |
| 2026-05-07 01:50 | 44.16637 | 10.34120 | 19499 ft | 316 kts | 280° |
| 2026-05-07 01:50 | 44.17251 | 10.31182 | 19072 ft | 314 kts | 279° |
| 2026-05-07 01:51 | 44.17857 | 10.28256 | 18644 ft | 312 kts | 279° |
| 2026-05-07 01:51 | 44.18449 | 10.25381 | 18221 ft | 310 kts | 279° |
| 2026-05-07 01:51 | 44.19038 | 10.22516 | 17798 ft | 308 kts | 279° |
| 2026-05-07 01:51 | 44.19632 | 10.19657 | 17372 ft | 306 kts | 280° |
| 2026-05-07 01:52 | 44.20241 | 10.16789 | 16942 ft | 305 kts | 281° |
| 2026-05-07 01:52 | 44.20837 | 10.14000 | 16521 ft | 303 kts | 281° |
| 2026-05-07 01:52 | 44.21424 | 10.11197 | 16094 ft | 300 kts | 280° |
| 2026-05-07 01:52 | 44.21990 | 10.08389 | 15668 ft | 298 kts | 279° |
| 2026-05-07 01:53 | 44.22541 | 10.05634 | 15245 ft | 296 kts | 280° |
| 2026-05-07 01:53 | 44.23104 | 10.02866 | 14817 ft | 294 kts | 281° |
| 2026-05-07 01:53 | 44.23658 | 10.00151 | 14394 ft | 292 kts | 281° |
| 2026-05-07 01:53 | 44.24208 | 9.97432 | 13969 ft | 290 kts | 281° |
| 2026-05-07 01:54 | 44.24742 | 9.94756 | 13546 ft | 288 kts | 281° |
| 2026-05-07 01:54 | 44.25281 | 9.92056 | 13118 ft | 286 kts | 281° |
| 2026-05-07 01:54 | 44.25819 | 9.89422 | 12697 ft | 284 kts | 282° |
| 2026-05-07 01:54 | 44.26214 | 9.86743 | 12264 ft | 278 kts | 269° |
| 2026-05-07 01:55 | 44.26030 | 9.84082 | 11862 ft | 273 kts | 257° |
| 2026-05-07 01:55 | 44.25576 | 9.81514 | 11446 ft | 271 kts | 252° |
| 2026-05-07 01:55 | 44.25016 | 9.79027 | 11035 ft | 269 kts | 250° |
| 2026-05-07 01:55 | 44.24414 | 9.76584 | 10612 ft | 268 kts | 249° |
| 2026-05-07 01:56 | 44.23792 | 9.74139 | 10182 ft | 266 kts | 249° |
| 2026-05-07 01:56 | 44.23168 | 9.71716 | 9821 ft | 262 kts | 249° |
| 2026-05-07 01:56 | 44.22549 | 9.69323 | 9531 ft | 261 kts | 248° |
| 2026-05-07 01:56 | 44.21944 | 9.66979 | 9276 ft | 251 kts | 248° |
| 2026-05-07 01:57 | 44.21373 | 9.64754 | 9027 ft | 242 kts | 248° |
| 2026-05-07 01:57 | 44.20819 | 9.62558 | 8764 ft | 236 kts | 249° |
| 2026-05-07 01:57 | 44.20291 | 9.60405 | 8515 ft | 232 kts | 249° |
| 2026-05-07 01:57 | 44.19773 | 9.58277 | 8262 ft | 231 kts | 249° |
| 2026-05-07 01:58 | 44.19265 | 9.56187 | 8015 ft | 229 kts | 249° |
| 2026-05-07 01:58 | 44.18750 | 9.54076 | 7762 ft | 228 kts | 249° |
| 2026-05-07 01:58 | 44.18235 | 9.51980 | 7511 ft | 227 kts | 249° |
| 2026-05-07 01:58 | 44.17736 | 9.49910 | 7262 ft | 226 kts | 250° |
| 2026-05-07 01:59 | 44.17428 | 9.47762 | 6992 ft | 229 kts | 268° |
| 2026-05-07 01:59 | 44.17833 | 9.45626 | 6768 ft | 233 kts | 290° |
| 2026-05-07 01:59 | 44.18632 | 9.43628 | 6527 ft | 236 kts | 298° |
| 2026-05-07 01:59 | 44.19542 | 9.41723 | 6297 ft | 235 kts | 301° |
| 2026-05-07 02:00 | 44.20489 | 9.39863 | 6096 ft | 234 kts | 302° |
| 2026-05-07 02:00 | 44.21438 | 9.38043 | 5897 ft | 233 kts | 302° |
| 2026-05-07 02:00 | 44.22398 | 9.36211 | 5696 ft | 233 kts | 302° |
| 2026-05-07 02:00 | 44.23339 | 9.34407 | 5498 ft | 232 kts | 302° |
| 2026-05-07 02:01 | 44.24289 | 9.32568 | 5296 ft | 232 kts | 302° |
| 2026-05-07 02:01 | 44.25219 | 9.30750 | 5097 ft | 232 kts | 302° |
| 2026-05-07 02:01 | 44.26150 | 9.28917 | 4897 ft | 232 kts | 302° |
| 2026-05-07 02:01 | 44.27080 | 9.27068 | 4694 ft | 231 kts | 302° |
| 2026-05-07 02:02 | 44.27997 | 9.25227 | 4495 ft | 231 kts | 302° |
| 2026-05-07 02:02 | 44.28911 | 9.23380 | 4294 ft | 231 kts | 302° |
| 2026-05-07 02:02 | 44.29810 | 9.21549 | 4096 ft | 230 kts | 302° |
| 2026-05-07 02:02 | 44.30715 | 9.19690 | 3897 ft | 230 kts | 302° |
| 2026-05-07 02:03 | 44.31612 | 9.17832 | 3697 ft | 230 kts | 302° |
| 2026-05-07 02:03 | 44.32477 | 9.16029 | 3532 ft | 217 kts | 302° |
| 2026-05-07 02:03 | 44.33292 | 9.14325 | 3323 ft | 204 kts | 302° |
| 2026-05-07 02:03 | 44.34058 | 9.12718 | 3131 ft | 192 kts | 302° |
| 2026-05-07 02:04 | 44.34766 | 9.11222 | 2946 ft | 180 kts | 302° |
| 2026-05-07 02:04 | 44.35438 | 9.09798 | 2759 ft | 170 kts | 302° |
| 2026-05-07 02:04 | 44.36069 | 9.08437 | 2577 ft | 165 kts | 300° |
| 2026-05-07 02:04 | 44.36580 | 9.06997 | 2399 ft | 165 kts | 292° |
| 2026-05-07 02:05 | 44.36974 | 9.05521 | 2239 ft | 163 kts | 288° |
| 2026-05-07 02:05 | 44.37308 | 9.04009 | 2081 ft | 160 kts | 285° |
| 2026-05-07 02:05 | 44.37610 | 9.02508 | 1901 ft | 158 kts | 284° |
| 2026-05-07 02:05 | 44.37889 | 9.01069 | 1708 ft | 149 kts | 284° |
| 2026-05-07 02:06 | 44.38153 | 8.99703 | 1560 ft | 143 kts | 284° |
| 2026-05-07 02:06 | 44.38416 | 8.98365 | 1424 ft | 143 kts | 283° |
| 2026-05-07 02:06 | 44.38680 | 8.97024 | 1300 ft | 145 kts | 283° |
| 2026-05-07 02:06 | 44.38951 | 8.95643 | 1173 ft | 148 kts | 283° |
| 2026-05-07 02:07 | 44.39225 | 8.94247 | 1038 ft | 150 kts | 283° |
| 2026-05-07 02:07 | 44.39778 | 8.91423 | 746 ft | 152 kts | 284° |
| 2026-05-07 02:07 | 44.40055 | 8.90008 | 590 ft | 152 kts | 284° |
| 2026-05-07 02:08 | 44.40337 | 8.88568 | 416 ft | 152 kts | 285° |
| 2026-05-07 02:08 | 44.40617 | 8.87142 | 242 ft | 152 kts | 285° |
| 2026-05-07 02:08 | 44.40895 | 8.85722 | 89 ft | 149 kts | 285° |
| 2026-05-07 02:08 | 44.41154 | 8.84388 | 22 ft | 129 kts | 285° |
| 2026-05-07 02:09 | 44.41337 | 8.83463 | 22 ft | 71 kts | 285° |
| 2026-05-07 02:09 | 44.41434 | 8.83122 | 22 ft | 18 kts | 330° |
| 2026-05-07 02:09 | 44.41526 | 8.83093 | 22 ft | 12 kts | 32° |
| 2026-05-07 02:09 | 44.41541 | 8.83209 | 22 ft | 14 kts | 105° |
| 2026-05-07 02:10 | 44.41513 | 8.83352 | 22 ft | 17 kts | 105° |
| 2026-05-07 02:10 | 44.41480 | 8.83519 | 22 ft | 19 kts | 105° |
| 2026-05-07 02:10 | 44.41444 | 8.83703 | 22 ft | 21 kts | 105° |
| 2026-05-07 02:10 | 44.41404 | 8.83905 | 22 ft | 22 kts | 105° |
| 2026-05-07 02:11 | 44.41362 | 8.84119 | 22 ft | 24 kts | 105° |
| 2026-05-07 02:11 | 44.41318 | 8.84347 | 22 ft | 23 kts | 105° |
| 2026-05-07 02:11 | 44.41359 | 8.84489 | 22 ft | 14 kts | 52° |
| 2026-05-07 02:11 | 44.41426 | 8.84611 | 22 ft | 17 kts | 52° |
| 2026-05-07 02:12 | 44.41480 | 8.84709 | 22 ft | 10 kts | 52° |
| 2026-05-07 02:12 | 44.41513 | 8.84793 | 22 ft | 8 kts | 92° |
| 2026-05-07 02:12 | 44.41501 | 8.84865 | 22 ft | 6 kts | 104° |
| 2026-05-07 02:12 | 44.41494 | 8.84908 | 22 ft | 4 kts | 104° |
| 2026-05-07 02:13 | 44.41492 | 8.84916 | 22 ft | 0 kts | 104° |